createdAt,value
2022-11-16T00:00:14.486Z,7.30
2022-11-16T00:02:41.318Z,7.30
2022-11-16T00:05:08.604Z,7.30
2022-11-16T00:07:35.541Z,7.30
2022-11-16T00:10:02.473Z,7.30
2022-11-16T00:12:29.303Z,7.40
2022-11-16T00:14:58.667Z,7.40
2022-11-16T00:20:11.903Z,7.30
2022-11-16T00:22:38.769Z,7.40
2022-11-16T00:25:06.276Z,7.50
2022-11-16T00:27:53.427Z,7.50
2022-11-16T00:30:20.522Z,7.40
2022-11-16T00:32:50.069Z,7.40
2022-11-16T00:35:55.764Z,7.40
2022-11-16T00:38:25.359Z,7.40
2022-11-16T00:40:52.116Z,7.50
2022-11-16T00:43:18.936Z,7.70
2022-11-16T00:45:45.715Z,7.60
2022-11-16T00:48:13.170Z,7.70
2022-11-16T00:50:40.092Z,7.70
2022-11-16T00:53:07.627Z,7.70
2022-11-16T00:55:34.792Z,7.70
2022-11-16T00:58:01.503Z,7.80
2022-11-16T01:00:28.260Z,7.70
2022-11-16T01:02:55.006Z,7.60
2022-11-16T01:05:22.953Z,7.70
2022-11-16T01:07:50.245Z,7.50
2022-11-16T01:10:19.797Z,7.40
2022-11-16T01:12:47.967Z,7.40
2022-11-16T01:15:15.758Z,7.30
2022-11-16T01:17:43.448Z,7.30
2022-11-16T01:20:17.420Z,7.40
2022-11-16T01:22:56.690Z,7.40
2022-11-16T01:26:08.520Z,7.30
2022-11-16T01:28:35.790Z,7.20
2022-11-16T01:31:09.488Z,7.10
2022-11-16T01:33:52.312Z,7.20
2022-11-16T01:36:49.961Z,7.20
2022-11-16T01:39:17.476Z,7.20
2022-11-16T01:41:45.192Z,7.30
2022-11-16T01:44:14.675Z,7.40
2022-11-16T01:46:42.252Z,7.30
2022-11-16T01:49:14.005Z,7.50
2022-11-16T01:51:43.943Z,7.50
2022-11-16T01:54:13.777Z,7.50
2022-11-16T01:56:42.103Z,7.60
2022-11-16T01:59:09.339Z,7.30
2022-11-16T02:01:38.582Z,7.20
2022-11-16T02:04:13.542Z,7.20
2022-11-16T02:07:09.691Z,7.30
2022-11-16T02:10:57.290Z,7.20
2022-11-16T02:13:52.996Z,7.30
2022-11-16T02:16:43.194Z,7.50
2022-11-16T02:20:13.168Z,7.60
2022-11-16T02:27:29.463Z,7.70
2022-11-16T02:29:57.565Z,7.80
2022-11-16T02:33:02.914Z,7.80
2022-11-16T02:35:42.593Z,8.00
2022-11-16T02:38:14.020Z,8.00
2022-11-16T02:40:47.674Z,8.10
2022-11-16T02:43:26.516Z,8.20
2022-11-16T02:45:57.113Z,8.20
2022-11-16T02:48:30.222Z,8.30
2022-11-16T02:50:57.423Z,8.30
2022-11-16T02:53:25.497Z,8.40
2022-11-16T02:55:52.319Z,8.40
2022-11-16T02:58:23.631Z,8.40
2022-11-16T03:01:03.290Z,8.40
2022-11-16T03:03:50.683Z,8.30
2022-11-16T03:06:23.303Z,8.20
2022-11-16T03:09:14.282Z,8.20
2022-11-16T03:12:03.910Z,8.20
2022-11-16T03:14:59.359Z,8.20
2022-11-16T03:17:38.705Z,8.20
2022-11-16T03:20:18.365Z,8.20
2022-11-16T03:22:54.756Z,8.30
2022-11-16T03:25:24.811Z,8.30
2022-11-16T03:28:02.470Z,8.40
2022-11-16T03:30:33.775Z,8.40
2022-11-16T03:33:06.394Z,8.40
2022-11-16T03:35:35.719Z,8.30
2022-11-16T03:38:07.698Z,8.30
2022-11-16T03:40:35.961Z,8.30
2022-11-16T03:43:04.992Z,8.20
2022-11-16T03:45:32.572Z,8.20
2022-11-16T03:58:53.692Z,8.10
2022-11-16T04:01:43.376Z,8.10
2022-11-16T04:05:04.288Z,8.10
2022-11-16T04:08:38.849Z,8.00
2022-11-16T04:11:44.491Z,8.00
2022-11-16T04:15:02.569Z,8.10
2022-11-16T04:24:11.989Z,8.10
2022-11-16T04:27:30.949Z,8.10
2022-11-16T04:33:05.076Z,8.10
2022-11-16T04:38:34.580Z,8.10
2022-11-16T04:41:05.723Z,8.10
2022-11-16T04:46:55.622Z,8.10
2022-11-16T04:49:22.665Z,8.20
2022-11-16T04:51:49.662Z,8.20
2022-11-16T04:54:16.781Z,8.20
2022-11-16T04:56:43.711Z,8.20
2022-11-16T04:59:22.316Z,8.20
